createdAt,value
2022-08-09T00:09:18.770Z,1022.85
2022-08-09T00:14:37.827Z,1022.84
2022-08-09T00:19:32.282Z,1022.81
2022-08-09T00:24:40.773Z,1022.82
2022-08-09T00:30:23.501Z,1022.85
2022-08-09T00:34:53.831Z,1022.81
2022-08-09T00:40:12.189Z,1022.81
2022-08-09T00:45:16.161Z,1022.84
2022-08-09T00:50:15.341Z,1022.83
2022-08-09T00:56:02.962Z,1022.80
2022-08-09T01:00:29.533Z,1022.80
2022-08-09T01:05:53.553Z,1022.82
2022-08-09T01:10:43.409Z,1022.84
2022-08-09T01:15:52.561Z,1022.89
2022-08-09T01:20:57.579Z,1022.86
2022-08-09T01:26:04.884Z,1022.80
2022-08-09T01:31:11.801Z,1022.80
2022-08-09T01:36:19.242Z,1022.80
2022-08-09T01:41:26.372Z,1022.81
2022-08-09T01:46:34.120Z,1022.84
2022-08-09T01:51:42.806Z,1022.90
2022-08-09T01:56:51.688Z,1022.90
2022-08-09T02:01:59.142Z,1022.93
2022-08-09T02:07:02.748Z,1022.92
2022-08-09T02:12:08.917Z,1022.92
2022-08-09T02:17:59.457Z,1022.91
2022-08-09T02:22:31.675Z,1022.93
2022-08-09T02:27:58.107Z,1022.96
2022-08-09T02:32:37.300Z,1022.98
2022-08-09T02:37:45.415Z,1022.98
2022-08-09T02:42:51.663Z,1022.97
2022-08-09T02:47:59.523Z,1022.94
2022-08-09T02:53:05.561Z,1022.95
2022-08-09T02:58:35.935Z,1022.95
2022-08-09T03:03:21.472Z,1022.99
2022-08-09T03:08:26.821Z,1023.03
2022-08-09T03:13:43.338Z,1023.07
2022-08-09T03:18:42.170Z,1023.06
2022-08-09T03:24:03.957Z,1023.02
2022-08-09T03:28:55.345Z,1023.02
2022-08-09T03:34:02.527Z,1023.04
2022-08-09T03:39:09.543Z,1023.06
2022-08-09T03:44:16.499Z,1023.05
2022-08-09T03:49:24.078Z,1023.09
2022-08-09T03:54:31.760Z,1023.10
2022-08-09T03:59:52.927Z,1023.13
2022-08-09T04:04:45.577Z,1023.20
2022-08-09T04:09:53.874Z,1023.27
2022-08-09T04:15:01.780Z,1023.30
2022-08-09T04:20:06.151Z,1023.32
2022-08-09T04:30:20.662Z,1023.40
2022-08-09T04:35:27.682Z,1023.44
2022-08-09T04:40:36.471Z,1023.46
2022-08-09T04:45:54.062Z,1023.50
2022-08-09T04:50:50.027Z,1023.53
2022-08-09T04:55:57.931Z,1023.60
2022-08-09T05:01:02.985Z,1023.67
2022-08-09T05:06:10.374Z,1023.74
2022-08-09T05:11:17.323Z,1023.81
2022-08-09T05:16:31.808Z,1023.78
2022-08-09T05:21:46.845Z,1023.77
2022-08-09T05:26:46.128Z,1023.76
2022-08-09T05:31:46.810Z,1023.79
2022-08-09T05:36:53.180Z,1023.85
2022-08-09T05:42:01.646Z,1023.94
2022-08-09T05:47:07.198Z,1024.01
2022-08-09T05:52:14.164Z,1024.02
2022-08-09T05:57:21.195Z,1023.89
2022-08-09T06:02:28.403Z,1023.91
2022-08-09T06:07:35.214Z,1023.98
2022-08-09T06:12:42.702Z,1024.01
2022-08-09T06:17:49.672Z,1024.08
2022-08-09T06:22:56.620Z,1024.13
2022-08-09T06:28:05.269Z,1024.12
2022-08-09T06:33:30.527Z,1024.23
2022-08-09T06:38:18.105Z,1024.30
2022-08-09T06:43:25.167Z,1024.46
2022-08-09T06:48:32.110Z,1024.46
2022-08-09T06:53:39.745Z,1024.50
2022-08-09T07:00:55.236Z,1024.61
2022-08-09T07:03:56.599Z,1024.68
2022-08-09T07:09:00.807Z,1024.75
2022-08-09T07:14:08.894Z,1024.86
2022-08-09T07:19:22.833Z,1024.77
2022-08-09T07:24:22.249Z,1024.92
2022-08-09T07:29:30.851Z,1025.00
2022-08-09T07:34:36.413Z,1024.91
2022-08-09T07:39:43.566Z,1025.04
2022-08-09T07:44:53.898Z,1025.09
2022-08-09T07:50:07.582Z,1025.10
2022-08-09T07:55:09.526Z,1025.23
2022-08-09T08:00:12.062Z,1025.29
2022-08-09T08:05:19.152Z,1025.25
2022-08-09T08:10:27.249Z,1025.36
2022-08-09T08:15:37.578Z,1025.38
2022-08-09T08:20:42.872Z,1025.53
2022-08-09T08:25:48.275Z,1025.71
2022-08-09T08:30:55.331Z,1025.74
2022-08-09T08:36:03.673Z,1025.69
2022-08-09T08:41:09.369Z,1025.73
2022-08-09T08:46:33.551Z,1025.58
2022-08-09T08:51:23.787Z,1025.58
2022-08-09T08:56:32.013Z,1025.71
2022-08-09T09:01:52.130Z,1025.72
2022-08-09T09:06:45.250Z,1025.65
2022-08-09T09:11:53.213Z,1025.67
2022-08-09T09:16:59.186Z,1025.73
2022-08-09T09:22:07.574Z,1025.73
2022-08-09T09:28:02.898Z,1025.65
2022-08-09T09:32:20.622Z,1025.65
2022-08-09T09:37:32.263Z,1025.58
2022-08-09T09:42:35.427Z,1025.52
2022-08-09T09:47:56.132Z,1025.52
2022-08-09T09:52:53.413Z,1025.48
2022-08-09T09:58:00.925Z,1025.55
2022-08-09T10:03:11.820Z,1025.48
2022-08-09T10:08:27.466Z,1025.49
2022-08-09T10:13:23.149Z,1025.38
2022-08-09T10:18:26.153Z,1025.40
2022-08-09T10:23:32.227Z,1025.33
2022-08-09T10:28:39.908Z,1025.34
2022-08-09T10:34:09.585Z,1025.26
2022-08-09T10:38:56.568Z,1025.22
2022-08-09T10:44:02.307Z,1025.19
2022-08-09T10:49:07.942Z,1025.29
2022-08-09T10:54:15.489Z,1025.34
2022-08-09T10:59:23.229Z,1025.45
2022-08-09T11:04:31.983Z,1025.47
2022-08-09T11:09:37.284Z,1025.56
2022-08-09T11:14:44.166Z,1025.47
2022-08-09T11:20:11.837Z,1025.53
2022-08-09T11:24:58.423Z,1025.59
2022-08-09T11:30:33.031Z,1025.53
2022-08-09T11:35:16.167Z,1025.69
2022-08-09T11:40:19.679Z,1025.65
2022-08-09T11:45:42.231Z,1025.48
2022-08-09T11:50:54.842Z,1025.33
2022-08-09T11:55:53.258Z,1025.23
2022-08-09T12:00:48.285Z,1025.18
2022-08-09T12:05:55.794Z,1025.13
2022-08-09T12:11:02.815Z,1025.13
2022-08-09T12:16:16.374Z,1025.17
2022-08-09T12:26:26.237Z,1025.31
2022-08-09T12:31:58.785Z,1025.25
2022-08-09T12:36:38.601Z,1025.13
2022-08-09T12:41:45.552Z,1025.16
2022-08-09T12:46:52.976Z,1025.04
2022-08-09T12:52:03.053Z,1024.88
2022-08-09T12:57:07.149Z,1024.73
2022-08-09T13:02:15.060Z,1024.73
2022-08-09T13:07:28.676Z,1024.62
2022-08-09T13:12:28.447Z,1024.59
2022-08-09T13:18:03.806Z,1024.57
2022-08-09T13:23:01.421Z,1024.55
2022-08-09T13:27:54.834Z,1024.57
2022-08-09T13:32:57.368Z,1024.57
2022-08-09T13:38:04.368Z,1024.48
2022-08-09T13:43:15.501Z,1024.55
2022-08-09T13:48:18.793Z,1024.51
2022-08-09T13:53:42.917Z,1024.53
2022-08-09T13:58:32.737Z,1024.50
2022-08-09T14:04:05.343Z,1024.46
2022-08-09T14:08:47.585Z,1024.44
2022-08-09T14:14:22.485Z,1024.28
2022-08-09T14:19:01.903Z,1024.08
2022-08-09T14:24:18.265Z,1023.98
2022-08-09T14:30:18.358Z,1024.03
2022-08-09T14:34:32.292Z,1024.04
2022-08-09T14:39:47.418Z,1024.06
2022-08-09T14:44:48.659Z,1024.06
2022-08-09T14:50:01.327Z,1024.03
2022-08-09T14:54:51.474Z,1024.06
2022-08-09T14:59:58.440Z,1024.07
2022-08-09T15:05:05.935Z,1023.94
2022-08-09T15:10:14.253Z,1023.85
2022-08-09T15:15:19.930Z,1023.87
2022-08-09T15:21:56.133Z,1023.83
2022-08-09T15:25:40.780Z,1023.81
2022-08-09T15:30:55.522Z,1023.78
2022-08-09T15:36:01.974Z,1023.70
2022-08-09T15:40:55.850Z,1023.62
2022-08-09T15:46:28.093Z,1023.56
2022-08-09T15:51:30.196Z,1023.54
2022-08-09T15:56:21.457Z,1023.63
2022-08-09T16:01:24.312Z,1023.65
2022-08-09T16:06:35.514Z,1023.72
2022-08-09T16:11:38.994Z,1023.63
2022-08-09T16:16:48.200Z,1023.56
2022-08-09T16:21:53.762Z,1023.47
2022-08-09T16:26:59.747Z,1023.37
2022-08-09T16:32:20.275Z,1023.33
2022-08-09T16:37:14.348Z,1023.28
2022-08-09T16:42:23.802Z,1023.34
2022-08-09T16:48:39.961Z,1023.42
2022-08-09T16:52:36.092Z,1023.39
2022-08-09T16:58:08.791Z,1023.42
2022-08-09T17:02:49.975Z,1023.46
2022-08-09T17:08:46.352Z,1023.57
2022-08-09T17:13:06.294Z,1023.57
2022-08-09T17:18:11.202Z,1023.53
2022-08-09T17:23:18.067Z,1023.57
2022-08-09T17:28:25.605Z,1023.62
2022-08-09T17:33:36.011Z,1023.61
2022-08-09T17:38:41.217Z,1023.61
2022-08-09T17:43:50.638Z,1023.63
2022-08-09T17:48:53.916Z,1023.68
2022-08-09T17:54:00.953Z,1023.64
2022-08-09T17:59:09.459Z,1023.67
2022-08-09T18:04:15.528Z,1023.69
2022-08-09T18:09:22.434Z,1023.68
2022-08-09T18:14:29.478Z,1023.68
2022-08-09T18:20:56.290Z,1023.75
2022-08-09T18:24:43.912Z,1023.87
2022-08-09T18:30:42.605Z,1023.87
2022-08-09T18:34:58.001Z,1023.88
2022-08-09T18:40:05.185Z,1023.88
2022-08-09T18:46:45.031Z,1023.89
2022-08-09T18:50:20.637Z,1023.94
2022-08-09T18:55:29.144Z,1023.94
2022-08-09T19:00:33.645Z,1024.01
2022-08-09T19:06:03.191Z,1024.07
2022-08-09T19:10:47.656Z,1024.12
2022-08-09T19:15:56.397Z,1024.11
2022-08-09T19:21:02.532Z,1024.19
2022-08-09T19:26:09.397Z,1024.21
2022-08-09T19:31:16.660Z,1024.16
2022-08-09T19:36:23.364Z,1024.23
2022-08-09T19:41:33.508Z,1024.27
2022-08-09T19:46:50.526Z,1024.34
2022-08-09T19:51:47.974Z,1024.33
2022-08-09T19:56:52.061Z,1024.32
2022-08-09T20:02:05.116Z,1024.26
2022-08-09T20:07:06.430Z,1024.29
2022-08-09T20:12:27.425Z,1024.29
2022-08-09T20:17:20.484Z,1024.29
2022-08-09T20:22:32.398Z,1024.30
2022-08-09T20:27:34.753Z,1024.30
2022-08-09T20:32:45.620Z,1024.25
2022-08-09T20:38:21.172Z,1024.26
2022-08-09T20:42:59.371Z,1024.26
2022-08-09T20:48:02.777Z,1024.30
2022-08-09T20:53:22.804Z,1024.43
2022-08-09T20:58:20.144Z,1024.50
2022-08-09T21:03:24.499Z,1024.53
2022-08-09T21:08:36.703Z,1024.55
2022-08-09T21:13:59.835Z,1024.61
2022-08-09T21:20:04.191Z,1024.59
2022-08-09T21:23:55.548Z,1024.58
2022-08-09T21:28:59.775Z,1024.65
2022-08-09T21:34:06.773Z,1024.73
2022-08-09T21:39:21.820Z,1024.81
2022-08-09T21:44:33.181Z,1024.82
2022-08-09T21:49:28.591Z,1024.77
2022-08-09T21:54:35.493Z,1024.77
2022-08-09T21:59:43.514Z,1024.74
2022-08-09T22:04:56.940Z,1024.76
2022-08-09T22:09:56.891Z,1024.76
2022-08-09T22:15:03.829Z,1024.75
2022-08-09T22:20:10.850Z,1024.75
2022-08-09T22:26:06.208Z,1024.72
2022-08-09T22:30:26.083Z,1024.71
2022-08-09T22:36:01.681Z,1024.72
2022-08-09T22:40:39.512Z,1024.73
2022-08-09T22:50:53.614Z,1024.78
2022-08-09T22:56:29.881Z,1024.81
2022-08-09T23:01:07.870Z,1024.77
2022-08-09T23:06:14.749Z,1024.72
2022-08-09T23:11:21.717Z,1024.71
2022-08-09T23:21:36.730Z,1024.72
2022-08-09T23:26:44.146Z,1024.72
2022-08-09T23:31:54.267Z,1024.72
2022-08-09T23:36:57.224Z,1024.67
2022-08-09T23:42:04.702Z,1024.69
2022-08-09T23:47:11.929Z,1024.73
2022-08-09T23:52:18.885Z,1024.80
2022-08-09T23:57:25.829Z,1024.85
